sensor_id;sensor_type;location;lat;lon;timestamp;pressure;altitude;pressure_sealevel;temperature;humidity
27805;BME280;15183;51.350;11.102;2022-07-18T00:00:22;100987.78;;;20.13;34.50
27805;BME280;15183;51.350;11.102;2022-07-18T00:02:48;100991.88;;;20.21;34.86
27805;BME280;15183;51.350;11.102;2022-07-18T00:05:15;100998.06;;;20.27;34.59
27805;BME280;15183;51.350;11.102;2022-07-18T00:07:41;100987.00;;;20.18;34.45
27805;BME280;15183;51.350;11.102;2022-07-18T00:10:08;100998.00;;;20.11;34.67
27805;BME280;15183;51.350;11.102;2022-07-18T00:12:34;100981.50;;;19.97;35.04
27805;BME280;15183;51.350;11.102;2022-07-18T00:15:01;100967.94;;;19.81;35.31
27805;BME280;15183;51.350;11.102;2022-07-18T00:17:28;100975.53;;;19.90;35.04
27805;BME280;15183;51.350;11.102;2022-07-18T00:19:54;100956.31;;;19.71;34.96
27805;BME280;15183;51.350;11.102;2022-07-18T00:22:20;100987.13;;;19.90;35.08
27805;BME280;15183;51.350;11.102;2022-07-18T00:24:47;100988.66;;;19.86;35.03
27805;BME280;15183;51.350;11.102;2022-07-18T00:27:14;100992.69;;;19.84;35.04
27805;BME280;15183;51.350;11.102;2022-07-18T00:29:40;100982.41;;;19.70;35.43
27805;BME280;15183;51.350;11.102;2022-07-18T00:32:08;100986.72;;;19.71;35.30
27805;BME280;15183;51.350;11.102;2022-07-18T00:34:35;100996.88;;;19.69;35.37
27805;BME280;15183;51.350;11.102;2022-07-18T00:37:02;100993.06;;;19.60;35.67
27805;BME280;15183;51.350;11.102;2022-07-18T00:39:28;100994.97;;;19.59;35.72
27805;BME280;15183;51.350;11.102;2022-07-18T00:41:55;100982.75;;;19.46;35.73
27805;BME280;15183;51.350;11.102;2022-07-18T00:44:24;100984.88;;;19.44;35.72
27805;BME280;15183;51.350;11.102;2022-07-18T00:46:56;100980.78;;;19.36;35.88
27805;BME280;15183;51.350;11.102;2022-07-18T00:49:23;100976.97;;;19.27;36.32
27805;BME280;15183;51.350;11.102;2022-07-18T00:51:49;100980.44;;;19.28;35.87
27805;BME280;15183;51.350;11.102;2022-07-18T00:54:17;100984.50;;;19.30;35.88
27805;BME280;15183;51.350;11.102;2022-07-18T00:56:45;100984.81;;;19.34;36.39
27805;BME280;15183;51.350;11.102;2022-07-18T00:59:12;100979.16;;;19.35;35.86
27805;BME280;15183;51.350;11.102;2022-07-18T01:01:38;100983.47;;;19.36;36.56
27805;BME280;15183;51.350;11.102;2022-07-18T01:04:21;100989.69;;;19.37;35.86
27805;BME280;15183;51.350;11.102;2022-07-18T01:06:50;100986.44;;;19.35;36.09
27805;BME280;15183;51.350;11.102;2022-07-18T01:09:17;101002.06;;;19.38;35.85
27805;BME280;15183;51.350;11.102;2022-07-18T01:11:46;100989.06;;;19.30;36.51
27805;BME280;15183;51.350;11.102;2022-07-18T01:14:14;100914.47;;;18.82;36.56
27805;BME280;15183;51.350;11.102;2022-07-18T01:16:40;100987.72;;;19.27;36.55
27805;BME280;15183;51.350;11.102;2022-07-18T01:19:07;101004.06;;;19.26;36.46
27805;BME280;15183;51.350;11.102;2022-07-18T01:21:33;100976.00;;;19.11;36.72
27805;BME280;15183;51.350;11.102;2022-07-18T01:24:00;101006.94;;;19.14;36.50
27805;BME280;15183;51.350;11.102;2022-07-18T01:26:26;101006.81;;;19.03;36.53
27805;BME280;15183;51.350;11.102;2022-07-18T01:28:53;100990.47;;;18.83;36.55
27805;BME280;15183;51.350;11.102;2022-07-18T01:31:19;101000.44;;;18.87;36.64
27805;BME280;15183;51.350;11.102;2022-07-18T01:33:45;100991.53;;;18.82;36.86
27805;BME280;15183;51.350;11.102;2022-07-18T01:36:12;100991.28;;;18.83;36.95
27805;BME280;15183;51.350;11.102;2022-07-18T01:38:39;100997.56;;;18.94;37.22
27805;BME280;15183;51.350;11.102;2022-07-18T01:41:05;100986.78;;;18.89;37.32
27805;BME280;15183;51.350;11.102;2022-07-18T01:43:32;100998.41;;;18.94;36.70
27805;BME280;15183;51.350;11.102;2022-07-18T01:46:00;100991.28;;;18.83;36.94
27805;BME280;15183;51.350;11.102;2022-07-18T01:48:27;100989.41;;;18.84;36.62
27805;BME280;15183;51.350;11.102;2022-07-18T01:50:54;100998.88;;;18.91;37.42
27805;BME280;15183;51.350;11.102;2022-07-18T01:53:20;100987.84;;;18.88;37.16
27805;BME280;15183;51.350;11.102;2022-07-18T01:55:47;100988.41;;;18.90;36.95
27805;BME280;15183;51.350;11.102;2022-07-18T01:58:13;100997.00;;;18.92;37.36
27805;BME280;15183;51.350;11.102;2022-07-18T02:00:40;100981.03;;;18.80;37.38
27805;BME280;15183;51.350;11.102;2022-07-18T02:03:06;100971.81;;;18.71;37.69
27805;BME280;15183;51.350;11.102;2022-07-18T02:05:33;100980.81;;;18.82;37.69
27805;BME280;15183;51.350;11.102;2022-07-18T02:07:59;100983.72;;;18.80;37.47
27805;BME280;15183;51.350;11.102;2022-07-18T02:10:26;100981.03;;;18.80;37.49
27805;BME280;15183;51.350;11.102;2022-07-18T02:12:52;100952.47;;;18.69;37.22
27805;BME280;15183;51.350;11.102;2022-07-18T02:15:19;100966.00;;;18.79;37.32
27805;BME280;15183;51.350;11.102;2022-07-18T02:17:45;100971.41;;;18.84;37.73
27805;BME280;15183;51.350;11.102;2022-07-18T02:20:13;100966.53;;;18.81;37.46
27805;BME280;15183;51.350;11.102;2022-07-18T02:22:40;100962.81;;;18.82;37.23
27805;BME280;15183;51.350;11.102;2022-07-18T02:25:07;100964.69;;;18.82;37.20
27805;BME280;15183;51.350;11.102;2022-07-18T02:27:34;100962.81;;;18.82;37.72
27805;BME280;15183;51.350;11.102;2022-07-18T02:30:00;100962.00;;;18.82;37.54
27805;BME280;15183;51.350;11.102;2022-07-18T02:32:27;100961.97;;;18.76;37.20
27805;BME280;15183;51.350;11.102;2022-07-18T02:34:53;100965.44;;;18.77;37.74
27805;BME280;15183;51.350;11.102;2022-07-18T02:37:20;100962.50;;;18.78;37.30
27805;BME280;15183;51.350;11.102;2022-07-18T02:39:46;100955.00;;;18.80;37.79
27805;BME280;15183;51.350;11.102;2022-07-18T02:42:13;100953.41;;;18.79;37.25
27805;BME280;15183;51.350;11.102;2022-07-18T02:44:39;100939.34;;;18.72;37.53
27805;BME280;15183;51.350;11.102;2022-07-18T02:47:06;100973.59;;;18.87;37.62
27805;BME280;15183;51.350;11.102;2022-07-18T02:49:33;100955.75;;;18.76;37.36
27805;BME280;15183;51.350;11.102;2022-07-18T02:52:06;100962.00;;;18.82;37.48
27805;BME280;15183;51.350;11.102;2022-07-18T02:54:35;100955.81;;;18.81;37.20
27805;BME280;15183;51.350;11.102;2022-07-18T02:57:02;100973.63;;;18.92;37.01
27805;BME280;15183;51.350;11.102;2022-07-18T02:59:29;100974.69;;;18.91;37.54
27805;BME280;15183;51.350;11.102;2022-07-18T03:01:56;100969.03;;;18.88;37.54
27805;BME280;15183;51.350;11.102;2022-07-18T03:04:23;100961.69;;;18.78;37.16
27805;BME280;15183;51.350;11.102;2022-07-18T03:06:50;100960.53;;;18.69;37.33
27805;BME280;15183;51.350;11.102;2022-07-18T03:09:17;100963.78;;;18.48;37.75
27805;BME280;15183;51.350;11.102;2022-07-18T03:11:44;100949.75;;;18.19;38.46
27805;BME280;15183;51.350;11.102;2022-07-18T03:14:11;100965.41;;;18.05;38.26
27805;BME280;15183;51.350;11.102;2022-07-18T03:16:37;100975.13;;;17.94;38.46
27805;BME280;15183;51.350;11.102;2022-07-18T03:19:04;100977.56;;;17.96;38.84
27805;BME280;15183;51.350;11.102;2022-07-18T03:21:31;100984.88;;;18.00;38.25
27805;BME280;15183;51.350;11.102;2022-07-18T03:23:57;100977.31;;;17.97;38.43
27805;BME280;15183;51.350;11.102;2022-07-18T03:26:24;100988.47;;;18.06;38.72
27805;BME280;15183;51.350;11.102;2022-07-18T03:28:50;100985.78;;;18.06;38.91
27805;BME280;15183;51.350;11.102;2022-07-18T03:31:16;100975.31;;;18.04;38.32
27805;BME280;15183;51.350;11.102;2022-07-18T03:33:43;100969.22;;;18.09;38.27
27805;BME280;15183;51.350;11.102;2022-07-18T03:36:09;100975.44;;;18.15;38.21
27805;BME280;15183;51.350;11.102;2022-07-18T03:38:36;100972.00;;;18.19;38.21
27805;BME280;15183;51.350;11.102;2022-07-18T03:41:03;100971.78;;;18.21;38.42
27805;BME280;15183;51.350;11.102;2022-07-18T03:43:30;100971.13;;;18.36;38.64
27805;BME280;15183;51.350;11.102;2022-07-18T03:45:57;100972.63;;;18.49;38.31
27805;BME280;15183;51.350;11.102;2022-07-18T03:48:23;100961.72;;;18.56;38.51
27805;BME280;15183;51.350;11.102;2022-07-18T03:50:50;100975.38;;;18.76;37.99
27805;BME280;15183;51.350;11.102;2022-07-18T03:53:16;100976.00;;;18.84;38.32
27805;BME280;15183;51.350;11.102;2022-07-18T03:55:42;100977.16;;;18.93;38.04
27805;BME280;15183;51.350;11.102;2022-07-18T03:58:09;100988.63;;;19.11;38.40
27805;BME280;15183;51.350;11.102;2022-07-18T04:00:35;100981.25;;;19.28;38.20
27805;BME280;15183;51.350;11.102;2022-07-18T04:03:02;100984.94;;;19.49;38.24
27805;BME280;15183;51.350;11.102;2022-07-18T04:05:28;100975.38;;;19.69;37.82
27805;BME280;15183;51.350;11.102;2022-07-18T04:07:54;100979.84;;;19.91;37.67
27805;BME280;15183;51.350;11.102;2022-07-18T04:10:21;100978.38;;;20.16;38.00
27805;BME280;15183;51.350;11.102;2022-07-18T04:12:51;100979.00;;;20.38;37.88
27805;BME280;15183;51.350;11.102;2022-07-18T04:15:19;100964.00;;;20.48;37.71
27805;BME280;15183;51.350;11.102;2022-07-18T04:17:47;100950.03;;;20.61;37.95
27805;BME280;15183;51.350;11.102;2022-07-18T04:20:15;100977.31;;;20.91;37.33
27805;BME280;15183;51.350;11.102;2022-07-18T04:22:53;100976.81;;;21.04;37.42
27805;BME280;15183;51.350;11.102;2022-07-18T04:25:22;100972.22;;;21.15;37.42
27805;BME280;15183;51.350;11.102;2022-07-18T04:27:50;100980.03;;;21.48;37.05
27805;BME280;15183;51.350;11.102;2022-07-18T04:30:20;100974.09;;;21.72;37.25
27805;BME280;15183;51.350;11.102;2022-07-18T04:32:47;100980.78;;;22.05;36.65
27805;BME280;15183;51.350;11.102;2022-07-18T04:35:14;100978.00;;;22.26;36.78
27805;BME280;15183;51.350;11.102;2022-07-18T04:37:41;100967.13;;;22.52;36.32
27805;BME280;15183;51.350;11.102;2022-07-18T04:40:09;100975.03;;;22.83;36.24
27805;BME280;15183;51.350;11.102;2022-07-18T04:42:36;100967.31;;;23.06;36.16
27805;BME280;15183;51.350;11.102;2022-07-18T04:45:04;100960.81;;;23.07;35.78
27805;BME280;15183;51.350;11.102;2022-07-18T04:47:31;100964.06;;;23.04;35.52
27805;BME280;15183;51.350;11.102;2022-07-18T04:49:58;100951.09;;;23.06;35.79
27805;BME280;15183;51.350;11.102;2022-07-18T04:52:24;100945.28;;;23.23;35.59
27805;BME280;15183;51.350;11.102;2022-07-18T04:54:51;100941.97;;;23.36;35.61
27805;BME280;15183;51.350;11.102;2022-07-18T04:57:18;100938.47;;;23.60;35.70
27805;BME280;15183;51.350;11.102;2022-07-18T04:59:46;100934.66;;;23.85;35.29
27805;BME280;15183;51.350;11.102;2022-07-18T05:02:12;100939.03;;;24.11;34.93
27805;BME280;15183;51.350;11.102;2022-07-18T05:04:40;100947.84;;;24.41;34.87
27805;BME280;15183;51.350;11.102;2022-07-18T05:07:06;100931.81;;;24.64;34.41
27805;BME280;15183;51.350;11.102;2022-07-18T05:09:33;100941.91;;;24.96;34.11
27805;BME280;15183;51.350;11.102;2022-07-18T05:11:59;100945.72;;;25.28;34.19
27805;BME280;15183;51.350;11.102;2022-07-18T05:14:26;100943.47;;;25.50;33.40
27805;BME280;15183;51.350;11.102;2022-07-18T05:16:52;100942.28;;;25.84;33.14
27805;BME280;15183;51.350;11.102;2022-07-18T05:19:19;100940.06;;;26.14;32.89
27805;BME280;15183;51.350;11.102;2022-07-18T05:21:45;100947.81;;;26.35;32.87
27805;BME280;15183;51.350;11.102;2022-07-18T05:24:12;100961.84;;;26.51;32.79
27805;BME280;15183;51.350;11.102;2022-07-18T05:26:39;100955.22;;;26.57;32.55
27805;BME280;15183;51.350;11.102;2022-07-18T05:29:05;100956.25;;;26.70;32.41
27805;BME280;15183;51.350;11.102;2022-07-18T05:31:32;100944.66;;;26.78;32.19
27805;BME280;15183;51.350;11.102;2022-07-18T05:33:58;100968.53;;;27.04;31.44
27805;BME280;15183;51.350;11.102;2022-07-18T05:36:25;100961.63;;;27.21;31.18
27805;BME280;15183;51.350;11.102;2022-07-18T05:38:51;100958.56;;;27.22;31.35
27805;BME280;15183;51.350;11.102;2022-07-18T05:41:18;100959.13;;;27.33;31.14
27805;BME280;15183;51.350;11.102;2022-07-18T05:43:44;100957.88;;;27.39;31.76
27805;BME280;15183;51.350;11.102;2022-07-18T05:46:10;100960.63;;;27.48;31.40
27805;BME280;15183;51.350;11.102;2022-07-18T05:48:37;100967.34;;;27.73;31.47
27805;BME280;15183;51.350;11.102;2022-07-18T05:51:03;100962.59;;;27.97;31.20
27805;BME280;15183;51.350;11.102;2022-07-18T05:53:30;100960.28;;;28.22;30.56
27805;BME280;15183;51.350;11.102;2022-07-18T05:55:56;100953.25;;;28.21;29.80
27805;BME280;15183;51.350;11.102;2022-07-18T05:58:23;100959.84;;;28.28;29.93
27805;BME280;15183;51.350;11.102;2022-07-18T06:00:50;100940.69;;;28.11;30.35
27805;BME280;15183;51.350;11.102;2022-07-18T06:03:16;100954.78;;;28.13;30.54
27805;BME280;15183;51.350;11.102;2022-07-18T06:05:43;100956.91;;;28.16;30.51
27805;BME280;15183;51.350;11.102;2022-07-18T06:08:09;100950.38;;;28.26;29.91
27805;BME280;15183;51.350;11.102;2022-07-18T06:10:36;100955.19;;;28.38;30.17
27805;BME280;15183;51.350;11.102;2022-07-18T06:13:02;100947.81;;;28.56;29.50
27805;BME280;15183;51.350;11.102;2022-07-18T06:15:29;100952.03;;;28.80;29.53
27805;BME280;15183;51.350;11.102;2022-07-18T06:17:55;100941.72;;;28.94;29.61
27805;BME280;15183;51.350;11.102;2022-07-18T06:20:22;100945.50;;;29.20;29.34
27805;BME280;15183;51.350;11.102;2022-07-18T06:22:49;100955.72;;;29.49;28.98
27805;BME280;15183;51.350;11.102;2022-07-18T06:25:15;100943.41;;;29.73;28.50
27805;BME280;15183;51.350;11.102;2022-07-18T06:27:42;100960.16;;;30.01;28.33
27805;BME280;15183;51.350;11.102;2022-07-18T06:30:09;100961.31;;;30.22;28.32
27805;BME280;15183;51.350;11.102;2022-07-18T06:32:36;100955.84;;;30.43;27.66
27805;BME280;15183;51.350;11.102;2022-07-18T06:35:03;100949.94;;;30.62;27.94
27805;BME280;15183;51.350;11.102;2022-07-18T06:37:30;100948.69;;;30.93;27.60
27805;BME280;15183;51.350;11.102;2022-07-18T06:39:56;100952.22;;;31.27;26.87
27805;BME280;15183;51.350;11.102;2022-07-18T06:42:23;100948.94;;;31.46;27.13
27805;BME280;15183;51.350;11.102;2022-07-18T06:44:49;100939.13;;;31.58;26.50
27805;BME280;15183;51.350;11.102;2022-07-18T06:47:16;100945.84;;;31.73;26.69
27805;BME280;15183;51.350;11.102;2022-07-18T06:49:42;100949.53;;;31.89;25.90
27805;BME280;15183;51.350;11.102;2022-07-18T06:52:08;100953.16;;;32.06;26.21
27805;BME280;15183;51.350;11.102;2022-07-18T06:54:38;100948.59;;;32.10;26.13
27805;BME280;15183;51.350;11.102;2022-07-18T06:57:06;100951.78;;;32.12;25.62
27805;BME280;15183;51.350;11.102;2022-07-18T06:59:33;100940.44;;;32.26;26.08
27805;BME280;15183;51.350;11.102;2022-07-18T07:02:00;100931.59;;;32.45;25.64
27805;BME280;15183;51.350;11.102;2022-07-18T07:04:26;100926.53;;;32.60;25.02
27805;BME280;15183;51.350;11.102;2022-07-18T07:06:53;100942.88;;;32.85;24.92
27805;BME280;15183;51.350;11.102;2022-07-18T07:09:19;100938.69;;;33.03;24.86
27805;BME280;15183;51.350;11.102;2022-07-18T07:11:45;100936.41;;;33.22;24.27
27805;BME280;15183;51.350;11.102;2022-07-18T07:14:12;100938.09;;;33.42;23.96
27805;BME280;15183;51.350;11.102;2022-07-18T07:16:38;100942.44;;;33.59;23.33
27805;BME280;15183;51.350;11.102;2022-07-18T07:19:05;100939.22;;;33.73;23.21
27805;BME280;15183;51.350;11.102;2022-07-18T07:21:31;100930.41;;;33.84;23.63
27805;BME280;15183;51.350;11.102;2022-07-18T07:23:57;100937.78;;;33.96;22.92
27805;BME280;15183;51.350;11.102;2022-07-18T07:26:24;100929.84;;;34.10;22.89
27805;BME280;15183;51.350;11.102;2022-07-18T07:28:50;100931.13;;;34.36;22.37
27805;BME280;15183;51.350;11.102;2022-07-18T07:31:17;100930.22;;;34.48;22.76
27805;BME280;15183;51.350;11.102;2022-07-18T07:33:43;100930.06;;;34.60;21.91
27805;BME280;15183;51.350;11.102;2022-07-18T07:36:11;100918.41;;;34.67;22.23
27805;BME280;15183;51.350;11.102;2022-07-18T07:38:37;100914.25;;;34.77;22.30
27805;BME280;15183;51.350;11.102;2022-07-18T07:41:04;100918.06;;;34.92;21.64
27805;BME280;15183;51.350;11.102;2022-07-18T07:43:30;100905.22;;;35.00;21.54
27805;BME280;15183;51.350;11.102;2022-07-18T07:45:56;100920.41;;;35.13;21.48
27805;BME280;15183;51.350;11.102;2022-07-18T07:48:23;100916.13;;;35.16;21.59
27805;BME280;15183;51.350;11.102;2022-07-18T07:50:50;100901.97;;;35.17;21.12
27805;BME280;15183;51.350;11.102;2022-07-18T07:53:17;100905.59;;;35.21;20.92
27805;BME280;15183;51.350;11.102;2022-07-18T07:55:43;100899.59;;;35.16;20.62
27805;BME280;15183;51.350;11.102;2022-07-18T07:58:10;100894.88;;;35.16;21.28
27805;BME280;15183;51.350;11.102;2022-07-18T08:00:37;100878.09;;;35.02;20.83
27805;BME280;15183;51.350;11.102;2022-07-18T08:03:06;100891.19;;;35.09;21.05
27805;BME280;15183;51.350;11.102;2022-07-18T08:05:35;100882.91;;;35.05;21.00
27805;BME280;15183;51.350;11.102;2022-07-18T08:08:04;100884.22;;;35.15;21.17
27805;BME280;15183;51.350;11.102;2022-07-18T08:10:31;100884.31;;;35.22;21.33
27805;BME280;15183;51.350;11.102;2022-07-18T08:12:58;100883.72;;;35.32;21.12
27805;BME280;15183;51.350;11.102;2022-07-18T08:15:24;100889.22;;;35.32;21.05
27805;BME280;15183;51.350;11.102;2022-07-18T08:17:51;100876.88;;;35.23;20.60
27805;BME280;15183;51.350;11.102;2022-07-18T08:20:18;100879.50;;;35.15;20.74
27805;BME280;15183;51.350;11.102;2022-07-18T08:23:06;100878.66;;;35.11;21.16
27805;BME280;15183;51.350;11.102;2022-07-18T08:25:36;100870.00;;;35.13;21.19
27805;BME280;15183;51.350;11.102;2022-07-18T08:28:04;100881.22;;;35.24;20.85
27805;BME280;15183;51.350;11.102;2022-07-18T08:30:32;100871.13;;;35.35;20.79
27805;BME280;15183;51.350;11.102;2022-07-18T08:32:59;100879.16;;;35.44;20.32
27805;BME280;15183;51.350;11.102;2022-07-18T08:35:28;100881.69;;;35.53;20.08
27805;BME280;15183;51.350;11.102;2022-07-18T08:37:55;100881.03;;;35.63;19.89
27805;BME280;15183;51.350;11.102;2022-07-18T08:40:21;100874.00;;;35.69;19.90
27805;BME280;15183;51.350;11.102;2022-07-18T08:42:53;100876.41;;;35.71;20.42
27805;BME280;15183;51.350;11.102;2022-07-18T08:45:21;100871.31;;;35.73;19.54
27805;BME280;15183;51.350;11.102;2022-07-18T08:47:49;100872.44;;;35.68;19.41
27805;BME280;15183;51.350;11.102;2022-07-18T08:50:16;100863.72;;;35.66;20.06
27805;BME280;15183;51.350;11.102;2022-07-18T08:52:44;100867.72;;;35.69;19.63
27805;BME280;15183;51.350;11.102;2022-07-18T08:55:12;100874.81;;;35.70;19.71
27805;BME280;15183;51.350;11.102;2022-07-18T08:57:38;100875.28;;;35.75;19.55
27805;BME280;15183;51.350;11.102;2022-07-18T09:00:07;100878.56;;;35.85;19.84
27805;BME280;15183;51.350;11.102;2022-07-18T09:02:35;100885.41;;;35.98;19.50
27805;BME280;15183;51.350;11.102;2022-07-18T09:05:04;100884.34;;;36.03;19.26
27805;BME280;15183;51.350;11.102;2022-07-18T09:07:33;100885.63;;;36.13;18.98
27805;BME280;15183;51.350;11.102;2022-07-18T09:10:05;100879.75;;;36.18;19.07
27805;BME280;15183;51.350;11.102;2022-07-18T09:12:32;100877.47;;;36.24;18.67
27805;BME280;15183;51.350;11.102;2022-07-18T09:15:08;100869.25;;;36.31;18.75
27805;BME280;15183;51.350;11.102;2022-07-18T09:17:37;100869.53;;;36.53;18.34
27805;BME280;15183;51.350;11.102;2022-07-18T09:20:12;100876.75;;;36.68;18.19
27805;BME280;15183;51.350;11.102;2022-07-18T09:22:43;100863.44;;;36.77;18.39
27805;BME280;15183;51.350;11.102;2022-07-18T09:25:19;100857.88;;;36.74;18.22
27805;BME280;15183;51.350;11.102;2022-07-18T09:27:51;100862.94;;;36.64;17.66
27805;BME280;15183;51.350;11.102;2022-07-18T09:30:29;100868.41;;;36.61;17.69
27805;BME280;15183;51.350;11.102;2022-07-18T09:35:34;100852.88;;;36.49;17.45
27805;BME280;15183;51.350;11.102;2022-07-18T09:40:43;100853.06;;;36.67;17.43
27805;BME280;15183;51.350;11.102;2022-07-18T09:43:13;100854.00;;;36.82;17.79
27805;BME280;15183;51.350;11.102;2022-07-18T09:45:43;100866.72;;;36.94;17.42
27805;BME280;15183;51.350;11.102;2022-07-18T09:48:13;100858.13;;;36.99;17.27
27805;BME280;15183;51.350;11.102;2022-07-18T09:50:52;100855.06;;;37.15;16.85
27805;BME280;15183;51.350;11.102;2022-07-18T09:53:29;100855.91;;;37.23;17.26
27805;BME280;15183;51.350;11.102;2022-07-18T09:55:59;100842.50;;;37.29;16.68
27805;BME280;15183;51.350;11.102;2022-07-18T09:58:31;100850.47;;;37.34;16.53
27805;BME280;15183;51.350;11.102;2022-07-18T10:01:00;100845.25;;;37.21;16.48
27805;BME280;15183;51.350;11.102;2022-07-18T10:03:27;100839.31;;;37.19;16.26
27805;BME280;15183;51.350;11.102;2022-07-18T10:05:56;100850.03;;;37.28;16.43
27805;BME280;15183;51.350;11.102;2022-07-18T10:08:27;100841.81;;;37.43;16.37
27805;BME280;15183;51.350;11.102;2022-07-18T10:10:56;100836.81;;;37.59;16.93
27805;BME280;15183;51.350;11.102;2022-07-18T10:13:27;100827.78;;;37.73;17.13
27805;BME280;15183;51.350;11.102;2022-07-18T10:15:55;100823.91;;;37.96;16.33
27805;BME280;15183;51.350;11.102;2022-07-18T10:18:27;100824.34;;;38.02;16.31
27805;BME280;15183;51.350;11.102;2022-07-18T10:21:11;100838.97;;;38.06;15.90
27805;BME280;15183;51.350;11.102;2022-07-18T10:28:33;100829.69;;;37.58;16.07
27805;BME280;15183;51.350;11.102;2022-07-18T10:31:15;100833.16;;;37.48;16.33
27805;BME280;15183;51.350;11.102;2022-07-18T10:33:43;100826.88;;;37.55;16.27
27805;BME280;15183;51.350;11.102;2022-07-18T10:36:17;100829.34;;;37.71;15.74
27805;BME280;15183;51.350;11.102;2022-07-18T10:39:12;100819.13;;;37.86;16.17
27805;BME280;15183;51.350;11.102;2022-07-18T10:57:35;100815.66;;;38.14;15.50
27805;BME280;15183;51.350;11.102;2022-07-18T11:00:25;100820.44;;;38.21;16.09
27805;BME280;15183;51.350;11.102;2022-07-18T11:16:03;100793.38;;;37.71;15.94
27805;BME280;15183;51.350;11.102;2022-07-18T11:21:29;100791.00;;;37.73;15.93
27805;BME280;15183;51.350;11.102;2022-07-18T11:24:04;100775.22;;;37.73;15.90
27805;BME280;15183;51.350;11.102;2022-07-18T11:26:52;100781.13;;;37.72;15.90
27805;BME280;15183;51.350;11.102;2022-07-18T11:29:19;100774.00;;;37.63;15.61
27805;BME280;15183;51.350;11.102;2022-07-18T11:31:56;100765.28;;;37.54;15.58
27805;BME280;15183;51.350;11.102;2022-07-18T11:34:23;100774.75;;;37.53;16.43
27805;BME280;15183;51.350;11.102;2022-07-18T11:36:50;100771.66;;;37.73;16.10
27805;BME280;15183;51.350;11.102;2022-07-18T11:39:33;100760.19;;;37.78;15.54
27805;BME280;15183;51.350;11.102;2022-07-18T11:42:01;100765.75;;;37.85;15.31
27805;BME280;15183;51.350;11.102;2022-07-18T11:44:28;100759.88;;;37.98;15.43
27805;BME280;15183;51.350;11.102;2022-07-18T11:47:06;100757.53;;;38.07;15.11
27805;BME280;15183;51.350;11.102;2022-07-18T11:49:37;100763.47;;;38.16;15.69
27805;BME280;15183;51.350;11.102;2022-07-18T11:52:05;100749.66;;;38.31;15.46
27805;BME280;15183;51.350;11.102;2022-07-18T11:54:32;100758.38;;;38.47;15.23
27805;BME280;15183;51.350;11.102;2022-07-18T11:56:59;100735.03;;;38.52;15.07
27805;BME280;15183;51.350;11.102;2022-07-18T11:59:41;100740.97;;;38.65;15.20
27805;BME280;15183;51.350;11.102;2022-07-18T12:02:10;100742.13;;;38.78;15.18
27805;BME280;15183;51.350;11.102;2022-07-18T12:04:37;100739.34;;;38.97;15.00
27805;BME280;15183;51.350;11.102;2022-07-18T12:07:23;100725.03;;;39.13;15.24
27805;BME280;15183;51.350;11.102;2022-07-18T12:09:51;100721.09;;;39.06;15.76
27805;BME280;15183;51.350;11.102;2022-07-18T12:12:21;100728.91;;;39.41;15.33
27805;BME280;15183;51.350;11.102;2022-07-18T12:14:59;100718.88;;;39.58;15.78
27805;BME280;15183;51.350;11.102;2022-07-18T12:17:28;100725.13;;;39.80;15.14
27805;BME280;15183;51.350;11.102;2022-07-18T12:20:20;100718.31;;;39.92;15.20
27805;BME280;15183;51.350;11.102;2022-07-18T12:23:08;100719.84;;;40.00;14.94
27805;BME280;15183;51.350;11.102;2022-07-18T12:25:56;100720.25;;;39.99;15.15
27805;BME280;15183;51.350;11.102;2022-07-18T12:28:25;100716.34;;;39.89;15.14
27805;BME280;15183;51.350;11.102;2022-07-18T12:30:52;100711.25;;;39.80;15.68
27805;BME280;15183;51.350;11.102;2022-07-18T12:33:19;100701.81;;;39.66;14.67
27805;BME280;15183;51.350;11.102;2022-07-18T12:35:47;100710.19;;;39.56;14.74
27805;BME280;15183;51.350;11.102;2022-07-18T12:38:20;100711.84;;;39.39;15.89
27805;BME280;15183;51.350;11.102;2022-07-18T12:40:55;100711.41;;;39.51;15.01
27805;BME280;15183;51.350;11.102;2022-07-18T12:43:27;100701.38;;;39.72;14.98
27805;BME280;15183;51.350;11.102;2022-07-18T12:45:55;100699.75;;;39.85;14.54
27805;BME280;15183;51.350;11.102;2022-07-18T12:48:23;100695.38;;;39.77;14.89
27805;BME280;15183;51.350;11.102;2022-07-18T12:53:28;100692.41;;;39.49;14.46
27805;BME280;15183;51.350;11.102;2022-07-18T12:55:55;100680.16;;;39.40;14.96
27805;BME280;15183;51.350;11.102;2022-07-18T12:58:22;100681.63;;;39.59;14.71
27805;BME280;15183;51.350;11.102;2022-07-18T13:00:49;100676.84;;;39.66;14.40
27805;BME280;15183;51.350;11.102;2022-07-18T13:03:15;100676.84;;;39.66;14.73
27805;BME280;15183;51.350;11.102;2022-07-18T13:05:43;100686.31;;;39.73;14.59
27805;BME280;15183;51.350;11.102;2022-07-18T13:08:09;100673.41;;;39.48;14.47
27805;BME280;15183;51.350;11.102;2022-07-18T13:10:38;100665.13;;;39.37;14.80
27805;BME280;15183;51.350;11.102;2022-07-18T13:13:08;100675.41;;;39.40;14.88
27805;BME280;15183;51.350;11.102;2022-07-18T13:15:35;100669.00;;;39.50;14.49
27805;BME280;15183;51.350;11.102;2022-07-18T13:18:03;100670.91;;;39.64;14.84
27805;BME280;15183;51.350;11.102;2022-07-18T13:20:31;100665.28;;;39.79;14.93
27805;BME280;15183;51.350;11.102;2022-07-18T13:22:57;100657.72;;;39.79;14.65
27805;BME280;15183;51.350;11.102;2022-07-18T13:25:28;100665.19;;;39.90;15.20
27805;BME280;15183;51.350;11.102;2022-07-18T13:27:54;100657.16;;;40.03;14.67
27805;BME280;15183;51.350;11.102;2022-07-18T13:30:21;100668.09;;;40.25;14.82